Germann, AZ

8:38 AM MST on April 25, 2017 (GMT -0700)
Power Ranch - Vineyards | | Change Station
Active Advisory: Fire Weather Warning

Elev 1325 ft 33.28 °N, 111.70 °W | Updated 30 seconds ago

Partly Cloudy
Partly Cloudy
73.8 °F
Feels Like 77 °F
N
5.8
Wind Variable Wind from SSW

Today
High -- | Low -- °F
--% Chance of Precip.
Yesterday
High -- | Low -- °F
Precip. -- in
Pressure 29.71 in
Visibility 20.0 miles
Clouds Few 25000 ft
Heat Index 77 °F
Dew Point 49 °F
Humidity 41%
Rainfall 0.00 in
Snow Depth Not available.
5:44 AM 7:05 PM
Waning Crescent, 1% visible
METAR KIWA 251450Z 24016KT 20SM FEW250 21/08 A2971
Pressure 29.71 in
Visibility 20.0 miles
Clouds Few 25000 ft
Heat Index 77 °F
Dew Point 49 °F
Humidity 41%
Rainfall 0.00 in
Snow Depth Not available.
5:44 AM 7:05 PM
Waning Crescent, 1% visible
METAR KIWA 251450Z 24016KT 20SM FEW250 21/08 A2971

Get Your Daily Forecast Email!

Thanks for signing up!

Be on the lookout for a verification email in your inbox.

You'll start receiving severe weather alerts in your inbox..

×

10-Day Weather Forecast

Almanac

Astronomy

Apr. 25, 2017 Rise Set
Actual Time
Civil Twilight
Nautical Twilight
Astronomical Twilight
Moon
Length of Visible Light
Length of Day
Tomorrow will be .
, % of the Moon is Illuminated

Today's Extremes

State Highs State Lows

Community

WunderPhotos

WunderBlog® & News

Nearby

Air Quality

  Air Quality AQ Index Pollutant
Not available.

Snow Depth

Station Depth Elevation

Earthquake Activity

City Distance Mag. Time & Date
Minimum magnitude displayed is 2.5.

Coastal Water Temperatures

Place Temperature

Stations

Nearby Weather Stations

Station Location Temp. Windchill Dew Point Humidity Wind Precip. Elev Updated Type
                   

Watches & Warnings

Fire Weather Warning
Issued: 4:44 AM MDT Apr. 25, 2017 – National Weather Service

... Red flag warning remains in effect from 2 PM this afternoon to
8 PM MST this evening for strong winds, low relative humidity and
high fire danger for Maricopa County... northwest Pinal
County... and La Paz County...

* affected area... central deserts including Maricopa County and
the greater Phoenix area... northwest Pinal County and La Paz
County.

* Winds... west to northwest 15 to 25 mph with gusts up to 40 mph
during the afternoon and early evening hours.

* Timing... strong winds will peak this afternoon and last through
the evening from 2 PM to 8 PM MST today.

* Relative humidity... as low as 10 percent.

* Impacts... fuels are dry and fire danger is high. These
conditions combined with low relative humidity and strong
winds will lead to widespread hazardous fire weather
conditions.

Precautionary/preparedness actions...

Please advise the appropriate officials and fire crews in the
field of this red flag warning.